createdAt,value
2022-11-10T00:02:45.576Z,1.35
2022-11-10T00:05:32.378Z,1.40
2022-11-10T00:08:18.659Z,1.35
2022-11-10T00:11:07.377Z,0.90
2022-11-10T00:14:16.919Z,1.20
2022-11-10T00:20:12.530Z,1.27
2022-11-10T00:22:59.038Z,1.52
2022-11-10T00:25:45.243Z,1.20
2022-11-10T00:28:33.436Z,1.35
2022-11-10T00:31:19.824Z,1.30
2022-11-10T00:34:06.014Z,0.80
2022-11-10T00:36:52.230Z,1.52
2022-11-10T00:39:38.464Z,1.17
2022-11-10T00:42:24.549Z,1.15
2022-11-10T00:45:12.761Z,1.33
2022-11-10T00:47:58.911Z,1.00
2022-11-10T00:50:45.098Z,1.25
2022-11-10T00:53:31.402Z,1.52
2022-11-10T00:56:18.012Z,1.30
2022-11-10T00:59:04.538Z,1.30
2022-11-10T01:01:52.158Z,1.10
2022-11-10T01:04:38.314Z,1.55
2022-11-10T01:07:24.614Z,1.50
2022-11-10T01:10:11.176Z,1.45
2022-11-10T01:12:57.559Z,1.30
2022-11-10T01:15:44.070Z,1.48
2022-11-10T01:18:31.899Z,1.38
2022-11-10T01:21:18.236Z,1.33
2022-11-10T01:24:04.818Z,1.30
2022-11-10T01:26:51.377Z,1.73
2022-11-10T01:29:37.624Z,1.65
2022-11-10T01:32:23.948Z,1.15
2022-11-10T01:35:12.516Z,1.45
2022-11-10T01:37:58.708Z,1.42
2022-11-10T01:40:45.560Z,1.42
2022-11-10T01:43:32.291Z,0.93
2022-11-10T01:46:18.452Z,2.20
2022-11-10T01:49:05.571Z,1.10
2022-11-10T02:08:45.299Z,1.13
2022-11-10T02:11:33.056Z,1.02
2022-11-10T02:14:19.448Z,1.20
2022-11-10T02:17:05.869Z,1.10
2022-11-10T02:19:53.068Z,0.93
2022-11-10T02:22:40.965Z,1.42
2022-11-10T02:25:33.528Z,1.50
2022-11-10T02:28:19.807Z,1.52
2022-11-10T02:31:07.787Z,2.17
2022-11-10T02:33:55.292Z,1.20
2022-11-10T02:36:42.044Z,1.27
2022-11-10T02:39:29.907Z,1.45
2022-11-10T02:42:16.583Z,1.40
2022-11-10T02:45:02.985Z,1.30
2022-11-10T02:47:49.507Z,1.05
2022-11-10T02:50:35.899Z,1.67
2022-11-10T02:53:22.859Z,1.30
2022-11-10T02:56:11.296Z,1.25
2022-11-10T02:58:57.661Z,1.40
2022-11-10T03:01:43.829Z,1.20
2022-11-10T03:04:30.347Z,1.60
2022-11-10T03:07:16.961Z,1.73
2022-11-10T03:10:04.232Z,1.20
2022-11-10T03:12:55.348Z,1.30
2022-11-10T03:15:41.587Z,1.33
2022-11-10T03:18:27.818Z,1.92
2022-11-10T03:21:15.708Z,1.60
2022-11-10T03:24:02.469Z,1.27
2022-11-10T03:26:49.251Z,1.52
2022-11-10T03:29:37.074Z,1.25
2022-11-10T03:32:23.434Z,2.45
2022-11-10T03:35:10.856Z,1.40
2022-11-10T03:37:57.411Z,1.13
2022-11-10T03:41:12.515Z,1.70
2022-11-10T03:43:50.816Z,1.75
2022-11-10T03:46:42.732Z,1.85
2022-11-10T03:49:30.425Z,1.50
2022-11-10T03:52:16.741Z,1.52
2022-11-10T03:55:03.815Z,1.40
2022-11-10T03:57:50.084Z,1.73
2022-11-10T04:00:36.424Z,1.73
2022-11-10T04:03:24.852Z,1.65
2022-11-10T04:06:30.047Z,1.52
2022-11-10T04:09:16.532Z,1.70
2022-11-10T04:12:24.667Z,1.65
2022-11-10T04:15:29.925Z,1.73
2022-11-10T04:18:24.592Z,1.83
2022-11-10T04:21:13.070Z,2.03
2022-11-10T04:23:59.954Z,1.23
2022-11-10T04:26:47.531Z,1.38
2022-11-10T04:29:33.832Z,1.77
2022-11-10T04:32:20.227Z,1.65
2022-11-10T04:35:06.903Z,1.65
2022-11-10T04:37:54.674Z,1.67
2022-11-10T04:40:40.833Z,2.10
2022-11-10T04:43:27.122Z,2.00
2022-11-10T04:46:25.212Z,1.67
2022-11-10T04:49:12.097Z,1.83
2022-11-10T04:51:58.559Z,1.90
2022-11-10T04:54:46.678Z,1.85
2022-11-10T04:57:33.009Z,1.83
2022-11-10T05:00:20.067Z,1.73
2022-11-10T05:03:10.173Z,2.35
2022-11-10T05:05:56.761Z,2.35
2022-11-10T05:08:44.376Z,1.88
2022-11-10T05:11:32.124Z,2.10
2022-11-10T05:14:18.572Z,2.30
2022-11-10T05:17:04.925Z,1.90
2022-11-10T05:19:51.111Z,1.67
2022-11-10T05:22:37.361Z,1.80
2022-11-10T05:25:23.836Z,1.98
2022-11-10T05:28:12.688Z,2.58
2022-11-10T05:30:58.813Z,1.92
2022-11-10T05:33:45.220Z,1.95
2022-11-10T05:36:31.547Z,2.15
2022-11-10T05:39:17.872Z,1.73
2022-11-10T05:42:04.365Z,1.90
2022-11-10T05:44:52.224Z,2.05
2022-11-10T05:47:38.404Z,1.60
2022-11-10T05:50:25.489Z,1.95
2022-11-10T05:53:12.099Z,2.22
2022-11-10T05:55:58.529Z,1.80
2022-11-10T05:58:44.891Z,2.05
2022-11-10T06:01:32.464Z,1.55
2022-11-10T06:04:18.635Z,2.67
2022-11-10T06:07:05.123Z,2.75
2022-11-10T06:09:51.805Z,2.33
2022-11-10T06:12:42.161Z,1.90
2022-11-10T06:15:29.403Z,1.90
2022-11-10T06:18:19.475Z,2.42
2022-11-10T06:21:06.306Z,2.00
2022-11-10T06:23:52.674Z,2.28
2022-11-10T06:26:46.647Z,2.85
2022-11-10T06:29:33.617Z,2.30
2022-11-10T06:32:19.942Z,2.70
2022-11-10T06:35:08.084Z,2.50
2022-11-10T06:37:59.020Z,2.00
2022-11-10T06:40:45.678Z,2.47
2022-11-10T06:43:32.347Z,2.10
2022-11-10T06:46:18.616Z,3.60
2022-11-10T06:49:05.112Z,2.05
2022-11-10T06:51:53.478Z,2.10
2022-11-10T06:54:39.778Z,3.15
2022-11-10T06:57:26.001Z,2.47
2022-11-10T07:00:13.744Z,2.20
2022-11-10T07:03:05.540Z,2.20
2022-11-10T07:05:51.935Z,2.15
2022-11-10T07:08:39.551Z,2.25
2022-11-10T07:11:26.110Z,2.03
2022-11-10T07:14:12.490Z,2.88
2022-11-10T07:16:58.757Z,2.33
2022-11-10T07:19:45.066Z,2.30
2022-11-10T07:22:31.297Z,2.25
2022-11-10T07:25:21.260Z,2.67
2022-11-10T07:28:10.434Z,2.53
2022-11-10T07:30:57.281Z,2.20
2022-11-10T07:33:44.091Z,2.10
2022-11-10T07:36:30.485Z,2.38
2022-11-10T07:39:16.771Z,2.67
2022-11-10T07:42:04.645Z,3.08
2022-11-10T07:44:51.063Z,3.03
2022-11-10T07:47:37.352Z,2.63
2022-11-10T07:50:23.655Z,2.50
2022-11-10T07:53:12.112Z,3.15
2022-11-10T07:55:59.448Z,2.42
2022-11-10T07:58:48.050Z,2.70
2022-11-10T08:01:34.630Z,2.70
2022-11-10T08:04:21.385Z,3.15
2022-11-10T08:07:07.825Z,3.30
2022-11-10T08:09:54.513Z,2.53
2022-11-10T08:12:40.763Z,3.20
2022-11-10T08:15:29.907Z,2.92
2022-11-10T08:18:19.652Z,2.58
2022-11-10T08:21:06.590Z,2.45
2022-11-10T08:23:53.120Z,3.10
2022-11-10T08:26:39.593Z,2.95
2022-11-10T08:29:25.781Z,2.35
2022-11-10T08:32:13.364Z,2.85
2022-11-10T08:34:59.701Z,2.72
2022-11-10T08:37:45.925Z,3.05
2022-11-10T08:40:32.144Z,2.60
2022-11-10T08:43:19.748Z,2.60
2022-11-10T08:46:06.575Z,3.17
2022-11-10T08:48:54.251Z,4.10
2022-11-10T08:51:40.640Z,2.95
2022-11-10T08:54:27.043Z,2.92
2022-11-10T08:57:13.387Z,2.40
2022-11-10T08:59:59.663Z,3.13
2022-11-10T09:02:45.980Z,3.55
2022-11-10T09:05:33.867Z,2.65
2022-11-10T09:08:20.614Z,3.42
2022-11-10T09:11:07.464Z,3.28
2022-11-10T09:13:53.895Z,2.78
2022-11-10T09:16:40.248Z,2.58
2022-11-10T09:19:26.500Z,2.78
2022-11-10T09:22:14.564Z,3.08
2022-11-10T09:25:00.872Z,2.80
2022-11-10T09:27:47.440Z,2.67
2022-11-10T09:30:34.023Z,2.97
2022-11-10T09:33:20.877Z,3.00
2022-11-10T09:36:08.454Z,2.75
2022-11-10T09:38:55.848Z,2.35
2022-11-10T09:41:43.892Z,3.03
2022-11-10T09:44:37.012Z,2.72
2022-11-10T09:47:55.725Z,3.00
2022-11-10T09:50:40.990Z,2.88
2022-11-10T09:53:33.493Z,3.45
2022-11-10T09:56:27.058Z,2.83
2022-11-10T09:59:19.942Z,4.03
2022-11-10T10:02:16.874Z,2.87
2022-11-10T10:05:21.452Z,3.40
2022-11-10T10:08:10.279Z,3.05
2022-11-10T10:11:09.062Z,3.05
2022-11-10T10:14:18.900Z,2.75
2022-11-10T10:17:15.408Z,2.72
2022-11-10T10:20:13.393Z,2.47
2022-11-10T10:23:11.639Z,2.45
2022-11-10T10:25:58.331Z,2.80
2022-11-10T10:28:46.833Z,3.17
2022-11-10T10:31:36.708Z,2.85
2022-11-10T10:34:27.873Z,3.20
2022-11-10T10:37:26.126Z,2.08
2022-11-10T10:40:16.513Z,2.80
2022-11-10T10:43:04.451Z,1.92
2022-11-10T10:46:06.596Z,2.25
2022-11-10T10:49:27.448Z,2.95
2022-11-10T10:52:16.744Z,2.42
2022-11-10T10:55:07.954Z,2.20
2022-11-10T10:58:00.411Z,2.70
2022-11-10T11:00:48.568Z,2.97
2022-11-10T11:03:41.870Z,2.20
2022-11-10T11:06:31.564Z,2.30
2022-11-10T11:09:20.887Z,2.70
2022-11-10T11:12:09.703Z,2.80
2022-11-10T11:15:13.054Z,2.42
2022-11-10T11:18:01.224Z,2.17
2022-11-10T11:20:55.546Z,2.58
2022-11-10T11:24:00.707Z,2.63
2022-11-10T11:26:56.746Z,2.70
2022-11-10T11:29:59.475Z,3.10
2022-11-10T11:33:07.385Z,2.20
2022-11-10T11:35:59.299Z,2.72
2022-11-10T11:38:57.322Z,2.15
2022-11-10T11:41:49.614Z,2.15
2022-11-10T11:44:56.387Z,2.10
2022-11-10T11:48:00.700Z,2.40
2022-11-10T11:50:55.266Z,2.78
2022-11-10T11:53:53.302Z,2.42
2022-11-10T11:56:43.864Z,2.28
2022-11-10T11:59:56.665Z,2.08
2022-11-10T12:03:18.148Z,2.63
2022-11-10T12:06:24.101Z,2.40
2022-11-10T12:09:19.152Z,2.80
2022-11-10T12:12:23.443Z,2.20
2022-11-10T12:15:21.119Z,2.50
2022-11-10T12:18:20.323Z,2.47
2022-11-10T12:21:22.985Z,2.53
2022-11-10T12:24:31.226Z,2.35
2022-11-10T12:27:21.924Z,2.33
2022-11-10T12:30:13.253Z,2.30
2022-11-10T12:33:05.277Z,2.72
2022-11-10T12:35:55.109Z,2.63
2022-11-10T12:38:59.605Z,2.28
2022-11-10T12:41:50.662Z,2.15
2022-11-10T12:44:46.524Z,1.90
2022-11-10T12:47:39.828Z,2.40
2022-11-10T12:50:35.645Z,2.38
2022-11-10T12:53:24.645Z,1.95
2022-11-10T12:56:22.113Z,2.58
2022-11-10T12:59:23.690Z,2.05
2022-11-10T13:02:25.870Z,2.67
2022-11-10T13:05:24.252Z,2.50
2022-11-10T13:08:30.435Z,2.22
2022-11-10T13:11:28.967Z,2.35
2022-11-10T13:14:24.866Z,1.90
2022-11-10T13:17:13.039Z,2.42
2022-11-10T13:20:27.479Z,1.92
2022-11-10T13:23:25.633Z,2.00
2022-11-10T13:26:13.001Z,2.30
2022-11-10T13:29:02.749Z,1.98
2022-11-10T13:31:55.115Z,2.28
2022-11-10T13:34:42.563Z,2.15
2022-11-10T13:37:52.974Z,2.30
2022-11-10T13:40:40.971Z,1.90
2022-11-10T13:43:28.677Z,2.30
2022-11-10T13:46:15.362Z,1.60
2022-11-10T13:49:42.805Z,1.92
2022-11-10T13:52:42.650Z,1.90
2022-11-10T13:55:47.895Z,2.10
2022-11-10T13:58:36.619Z,2.47
2022-11-10T14:01:30.303Z,2.50
2022-11-10T14:07:22.497Z,1.92
2022-11-10T14:10:14.931Z,2.08
2022-11-10T14:13:07.919Z,2.25
2022-11-10T14:15:55.374Z,2.17
2022-11-10T14:18:46.484Z,2.10
2022-11-10T14:21:42.435Z,2.50
2022-11-10T14:24:31.544Z,2.35
2022-11-10T14:27:24.923Z,2.13
2022-11-10T14:30:24.619Z,1.98
2022-11-10T14:33:14.983Z,2.00
2022-11-10T14:36:03.167Z,2.00
2022-11-10T14:38:50.512Z,1.80
2022-11-10T14:41:37.123Z,1.83
2022-11-10T14:44:25.503Z,1.73
2022-11-10T14:47:25.095Z,2.25
2022-11-10T14:50:20.080Z,1.63
2022-11-10T14:53:13.949Z,2.22
2022-11-10T14:58:49.960Z,1.88
2022-11-10T15:01:38.963Z,2.50
2022-11-10T15:04:30.602Z,1.80
2022-11-10T15:07:17.541Z,1.98
2022-11-10T15:10:19.777Z,1.75
2022-11-10T15:13:18.231Z,2.22
2022-11-10T15:16:26.492Z,1.50
2022-11-10T15:19:24.246Z,1.70
2022-11-10T15:22:19.340Z,1.85
2022-11-10T15:25:15.352Z,1.65
2022-11-10T15:28:03.688Z,1.70
2022-11-10T15:30:51.876Z,2.13
2022-11-10T15:33:40.325Z,2.08
2022-11-10T15:36:33.191Z,1.77
2022-11-10T15:39:27.149Z,2.00
2022-11-10T15:42:16.708Z,1.95
2022-11-10T15:45:02.955Z,1.98
2022-11-10T15:47:49.378Z,1.80
2022-11-10T15:50:35.876Z,1.58
2022-11-10T15:53:27.797Z,2.50
2022-11-10T15:56:17.801Z,2.10
2022-11-10T15:59:04.551Z,2.47
2022-11-10T16:01:51.530Z,2.45
2022-11-10T16:04:38.040Z,2.70
2022-11-10T16:07:24.591Z,2.50
2022-11-10T16:10:11.302Z,2.53
2022-11-10T16:12:59.381Z,2.60
2022-11-10T16:15:46.330Z,2.30
2022-11-10T16:18:33.141Z,2.55
2022-11-10T16:21:22.673Z,2.70
2022-11-10T16:24:09.224Z,2.70
2022-11-10T16:26:55.689Z,2.35
2022-11-10T16:29:44.267Z,2.97
2022-11-10T16:32:30.459Z,2.90
2022-11-10T16:35:17.086Z,2.45
2022-11-10T16:38:03.666Z,2.70
2022-11-10T16:40:55.720Z,2.35
2022-11-10T16:43:42.431Z,2.55
2022-11-10T16:46:31.398Z,3.13
2022-11-10T16:49:25.856Z,2.50
2022-11-10T16:52:15.734Z,2.97
2022-11-10T16:55:02.076Z,2.65
2022-11-10T16:57:48.799Z,3.33
2022-11-10T17:00:35.087Z,2.97
2022-11-10T17:03:32.575Z,2.80
2022-11-10T17:06:21.496Z,2.58
2022-11-10T17:09:13.299Z,2.90
2022-11-10T17:11:59.759Z,2.92
2022-11-10T17:14:46.156Z,2.40
2022-11-10T17:17:32.672Z,2.28
2022-11-10T17:20:24.521Z,2.78
2022-11-10T17:23:15.104Z,2.60
2022-11-10T17:26:02.139Z,2.25
2022-11-10T17:28:48.959Z,2.53
2022-11-10T17:31:35.354Z,2.80
2022-11-10T17:34:21.513Z,2.67
2022-11-10T17:37:12.412Z,2.50
2022-11-10T17:39:59.407Z,3.00
2022-11-10T17:42:45.792Z,2.90
2022-11-10T17:45:32.106Z,2.50
2022-11-10T17:48:18.568Z,2.55
2022-11-10T17:51:05.832Z,2.53
2022-11-10T17:53:53.621Z,3.40
2022-11-10T17:56:39.851Z,2.65
2022-11-10T17:59:26.167Z,2.20
2022-11-10T18:02:12.946Z,2.70
2022-11-10T18:04:59.335Z,3.03
2022-11-10T18:07:46.093Z,3.08
2022-11-10T18:10:33.818Z,2.88
2022-11-10T18:13:20.745Z,2.63
2022-11-10T18:16:11.668Z,2.83
2022-11-10T18:18:58.711Z,2.85
2022-11-10T18:21:45.277Z,3.03
2022-11-10T18:24:31.656Z,2.95
2022-11-10T18:27:19.543Z,2.60
2022-11-10T18:30:06.971Z,3.20
2022-11-10T18:32:53.340Z,3.35
2022-11-10T18:35:41.098Z,2.80
2022-11-10T18:38:27.551Z,3.30
2022-11-10T18:41:31.677Z,2.70
2022-11-10T18:44:20.813Z,3.22
2022-11-10T18:47:08.599Z,2.88
2022-11-10T18:49:55.128Z,3.25
2022-11-10T18:52:41.517Z,2.92
2022-11-10T18:55:27.873Z,2.60
2022-11-10T18:58:14.315Z,3.17
2022-11-10T19:01:06.086Z,3.60
2022-11-10T19:03:53.180Z,2.63
2022-11-10T19:06:40.164Z,3.80
2022-11-10T19:09:26.673Z,3.40
2022-11-10T19:12:13.958Z,2.67
2022-11-10T19:15:00.392Z,3.00
2022-11-10T19:17:48.081Z,2.88
2022-11-10T19:20:36.220Z,3.05
2022-11-10T19:23:22.872Z,3.28
2022-11-10T19:26:11.665Z,3.08
2022-11-10T19:28:58.465Z,2.22
2022-11-10T19:31:45.554Z,2.63
2022-11-10T19:34:33.337Z,2.90
2022-11-10T19:37:19.682Z,2.83
2022-11-10T19:40:06.932Z,3.13
2022-11-10T19:42:53.174Z,3.13
2022-11-10T19:45:39.404Z,3.03
2022-11-10T19:48:25.601Z,2.83
2022-11-10T19:51:15.649Z,2.92
2022-11-10T19:54:04.946Z,2.70
2022-11-10T19:56:51.122Z,2.95
2022-11-10T19:59:37.418Z,3.03
2022-11-10T20:02:23.768Z,2.90
2022-11-10T20:05:13.296Z,3.28
2022-11-10T20:08:12.752Z,3.50
2022-11-10T20:11:03.789Z,3.30
2022-11-10T20:13:54.373Z,2.78
2022-11-10T20:16:41.773Z,3.20
2022-11-10T20:19:28.416Z,3.05
2022-11-10T20:22:14.727Z,2.80
2022-11-10T20:25:02.442Z,2.83
2022-11-10T20:27:48.731Z,2.83
2022-11-10T20:30:35.698Z,3.10
2022-11-10T20:33:22.461Z,3.50
2022-11-10T20:36:16.085Z,3.42
2022-11-10T20:39:06.593Z,2.70
2022-11-10T20:41:54.432Z,2.70
2022-11-10T20:44:41.385Z,3.00
2022-11-10T20:47:29.795Z,2.65
2022-11-10T20:50:21.709Z,2.78
2022-11-10T20:55:59.454Z,3.10
2022-11-10T20:58:48.949Z,2.42
2022-11-10T21:01:37.496Z,3.17
2022-11-10T21:04:24.092Z,2.97
2022-11-10T21:07:10.353Z,3.30
2022-11-10T21:09:56.824Z,2.33
2022-11-10T21:12:52.134Z,2.78
2022-11-10T21:15:41.260Z,2.58
2022-11-10T21:18:29.500Z,2.63
2022-11-10T21:21:21.727Z,2.30
2022-11-10T21:24:09.361Z,2.45
2022-11-10T21:26:56.649Z,2.47
2022-11-10T21:29:43.321Z,2.42
2022-11-10T21:32:31.310Z,2.58
2022-11-10T21:35:18.000Z,2.47
2022-11-10T21:38:04.682Z,2.60
2022-11-10T21:40:50.911Z,2.55
2022-11-10T21:43:38.667Z,2.97
2022-11-10T21:46:25.215Z,2.50
2022-11-10T21:49:13.188Z,2.60
2022-11-10T21:51:59.610Z,2.95
2022-11-10T21:54:45.896Z,2.53
2022-11-10T21:57:32.171Z,2.58
2022-11-10T22:00:18.696Z,2.58
2022-11-10T22:03:05.698Z,2.95
2022-11-10T22:05:53.611Z,2.65
2022-11-10T22:08:41.492Z,2.70
2022-11-10T22:11:50.451Z,2.22
2022-11-10T22:14:54.539Z,2.83
2022-11-10T22:17:58.446Z,2.13
2022-11-10T22:20:44.910Z,2.45
2022-11-10T22:23:50.346Z,2.70
2022-11-10T22:26:36.820Z,2.55
2022-11-10T22:29:26.137Z,2.88
2022-11-10T22:32:14.939Z,2.50
2022-11-10T22:35:01.252Z,2.40
2022-11-10T22:37:47.397Z,2.30
2022-11-10T22:40:54.338Z,1.92
2022-11-10T22:43:58.330Z,2.78
2022-11-10T22:46:47.992Z,2.65
2022-11-10T22:49:34.500Z,2.20
2022-11-10T22:52:20.667Z,2.70
2022-11-10T22:55:07.603Z,2.75
2022-11-10T22:57:55.358Z,2.22
2022-11-10T23:00:41.392Z,2.88
2022-11-10T23:03:27.734Z,2.40
2022-11-10T23:06:14.111Z,2.00
2022-11-10T23:09:01.147Z,2.42
2022-11-10T23:11:47.487Z,2.45
2022-11-10T23:14:35.160Z,2.45
2022-11-10T23:17:21.330Z,2.30
2022-11-10T23:20:08.505Z,2.88
2022-11-10T23:22:55.949Z,2.25
2022-11-10T23:25:42.301Z,2.22
2022-11-10T23:28:29.203Z,2.72
2022-11-10T23:31:20.523Z,2.50
2022-11-10T23:34:07.372Z,2.78
2022-11-10T23:36:54.000Z,3.22
2022-11-10T23:39:40.244Z,2.90
2022-11-10T23:42:27.788Z,2.28
2022-11-10T23:45:15.583Z,2.45
2022-11-10T23:48:06.909Z,2.40
2022-11-10T23:50:53.859Z,2.58
2022-11-10T23:53:40.437Z,2.53
2022-11-10T23:56:26.596Z,2.70
2022-11-10T23:59:12.761Z,2.22
